sensor_id;sensor_type;location;lat;lon;timestamp;temperature;humidity
11836;DHT22;5977;51.972;7.640;2022-12-18T00:01:28;14.10;81.00
11836;DHT22;5977;51.972;7.640;2022-12-18T00:03:59;14.10;81.50
11836;DHT22;5977;51.972;7.640;2022-12-18T00:06:28;14.10;81.00
11836;DHT22;5977;51.972;7.640;2022-12-18T00:08:57;14.10;81.00
11836;DHT22;5977;51.972;7.640;2022-12-18T00:11:27;14.10;80.90
11836;DHT22;5977;51.972;7.640;2022-12-18T00:13:57;14.00;81.10
11836;DHT22;5977;51.972;7.640;2022-12-18T00:16:28;14.10;81.00
11836;DHT22;5977;51.972;7.640;2022-12-18T00:19:00;14.10;81.00
11836;DHT22;5977;51.972;7.640;2022-12-18T00:21:29;14.10;81.20
11836;DHT22;5977;51.972;7.640;2022-12-18T00:23:58;14.00;81.10
11836;DHT22;5977;51.972;7.640;2022-12-18T00:26:28;14.00;81.10
11836;DHT22;5977;51.972;7.640;2022-12-18T00:29:00;14.00;81.10
11836;DHT22;5977;51.972;7.640;2022-12-18T00:31:32;14.00;81.10
11836;DHT22;5977;51.972;7.640;2022-12-18T00:34:01;14.00;81.10
11836;DHT22;5977;51.972;7.640;2022-12-18T00:36:30;14.00;81.30
11836;DHT22;5977;51.972;7.640;2022-12-18T00:39:00;14.10;81.20
11836;DHT22;5977;51.972;7.640;2022-12-18T00:41:28;14.00;80.80
11836;DHT22;5977;51.972;7.640;2022-12-18T00:44:15;14.00;80.70
11836;DHT22;5977;51.972;7.640;2022-12-18T00:46:47;14.00;80.60
11836;DHT22;5977;51.972;7.640;2022-12-18T00:49:16;14.00;80.70
11836;DHT22;5977;51.972;7.640;2022-12-18T00:51:45;14.00;80.80
11836;DHT22;5977;51.972;7.640;2022-12-18T00:54:13;14.00;80.90
11836;DHT22;5977;51.972;7.640;2022-12-18T00:56:41;14.00;80.80
11836;DHT22;5977;51.972;7.640;2022-12-18T00:59:18;14.00;80.80
11836;DHT22;5977;51.972;7.640;2022-12-18T01:01:47;14.00;80.80
11836;DHT22;5977;51.972;7.640;2022-12-18T01:04:15;14.00;80.70
11836;DHT22;5977;51.972;7.640;2022-12-18T01:06:44;14.00;80.90
11836;DHT22;5977;51.972;7.640;2022-12-18T01:09:12;14.00;81.50
11836;DHT22;5977;51.972;7.640;2022-12-18T01:11:40;14.00;80.70
11836;DHT22;5977;51.972;7.640;2022-12-18T01:14:10;14.00;80.80
11836;DHT22;5977;51.972;7.640;2022-12-18T01:16:38;14.00;80.70
11836;DHT22;5977;51.972;7.640;2022-12-18T01:19:07;14.00;80.70
11836;DHT22;5977;51.972;7.640;2022-12-18T01:21:35;14.00;80.60
11836;DHT22;5977;51.972;7.640;2022-12-18T01:24:04;14.00;80.60
11836;DHT22;5977;51.972;7.640;2022-12-18T01:26:33;14.00;80.40
11836;DHT22;5977;51.972;7.640;2022-12-18T01:29:00;14.00;80.50
11836;DHT22;5977;51.972;7.640;2022-12-18T01:31:30;14.00;80.60
11836;DHT22;5977;51.972;7.640;2022-12-18T01:34:02;14.00;80.50
11836;DHT22;5977;51.972;7.640;2022-12-18T01:36:33;14.00;80.50
11836;DHT22;5977;51.972;7.640;2022-12-18T01:39:03;14.00;80.30
11836;DHT22;5977;51.972;7.640;2022-12-18T01:41:32;13.90;80.30
11836;DHT22;5977;51.972;7.640;2022-12-18T01:44:59;13.90;80.40
11836;DHT22;5977;51.972;7.640;2022-12-18T01:47:30;13.90;80.70
11836;DHT22;5977;51.972;7.640;2022-12-18T01:50:02;14.00;80.20
11836;DHT22;5977;51.972;7.640;2022-12-18T01:52:32;13.90;80.00
11836;DHT22;5977;51.972;7.640;2022-12-18T01:55:03;14.00;80.00
11836;DHT22;5977;51.972;7.640;2022-12-18T01:57:32;14.00;80.10
11836;DHT22;5977;51.972;7.640;2022-12-18T02:00:05;13.90;80.10
11836;DHT22;5977;51.972;7.640;2022-12-18T02:02:40;13.90;80.00
11836;DHT22;5977;51.972;7.640;2022-12-18T02:05:10;13.90;80.10
11836;DHT22;5977;51.972;7.640;2022-12-18T02:07:48;13.90;80.10
11836;DHT22;5977;51.972;7.640;2022-12-18T02:10:24;13.90;79.90
11836;DHT22;5977;51.972;7.640;2022-12-18T02:12:58;13.90;80.00
11836;DHT22;5977;51.972;7.640;2022-12-18T02:15:33;13.90;80.00
11836;DHT22;5977;51.972;7.640;2022-12-18T02:18:07;13.90;80.00
11836;DHT22;5977;51.972;7.640;2022-12-18T02:20:39;14.00;80.10
11836;DHT22;5977;51.972;7.640;2022-12-18T02:23:21;13.90;80.10
11836;DHT22;5977;51.972;7.640;2022-12-18T02:26:11;14.00;79.80
11836;DHT22;5977;51.972;7.640;2022-12-18T02:28:44;13.90;79.60
11836;DHT22;5977;51.972;7.640;2022-12-18T02:31:21;13.90;79.90
11836;DHT22;5977;51.972;7.640;2022-12-18T02:33:53;13.90;79.90
11836;DHT22;5977;51.972;7.640;2022-12-18T02:36:24;13.90;80.00
11836;DHT22;5977;51.972;7.640;2022-12-18T02:38:56;13.80;79.90
11836;DHT22;5977;51.972;7.640;2022-12-18T02:41:26;13.90;80.00
11836;DHT22;5977;51.972;7.640;2022-12-18T02:43:56;13.90;79.90
11836;DHT22;5977;51.972;7.640;2022-12-18T02:46:28;13.90;79.90
11836;DHT22;5977;51.972;7.640;2022-12-18T02:49:14;13.90;79.90
11836;DHT22;5977;51.972;7.640;2022-12-18T02:51:51;13.90;79.60
11836;DHT22;5977;51.972;7.640;2022-12-18T02:54:35;13.90;79.60
11836;DHT22;5977;51.972;7.640;2022-12-18T02:57:14;13.90;79.60
11836;DHT22;5977;51.972;7.640;2022-12-18T02:59:52;13.80;79.60
11836;DHT22;5977;51.972;7.640;2022-12-18T03:02:27;13.90;79.70
11836;DHT22;5977;51.972;7.640;2022-12-18T03:05:01;13.90;79.80
11836;DHT22;5977;51.972;7.640;2022-12-18T03:07:37;13.90;79.70
11836;DHT22;5977;51.972;7.640;2022-12-18T03:10:13;13.90;79.70
11836;DHT22;5977;51.972;7.640;2022-12-18T03:12:47;13.80;79.60
11836;DHT22;5977;51.972;7.640;2022-12-18T03:15:19;13.90;79.90
11836;DHT22;5977;51.972;7.640;2022-12-18T03:17:59;13.90;79.60
11836;DHT22;5977;51.972;7.640;2022-12-18T03:20:31;13.90;79.50
11836;DHT22;5977;51.972;7.640;2022-12-18T03:23:06;13.90;79.50
11836;DHT22;5977;51.972;7.640;2022-12-18T03:25:38;13.90;79.40
11836;DHT22;5977;51.972;7.640;2022-12-18T03:28:12;13.90;79.40
11836;DHT22;5977;51.972;7.640;2022-12-18T03:30:44;13.90;79.40
11836;DHT22;5977;51.972;7.640;2022-12-18T03:33:16;13.90;79.40
11836;DHT22;5977;51.972;7.640;2022-12-18T03:35:48;13.90;79.60
11836;DHT22;5977;51.972;7.640;2022-12-18T03:38:17;13.90;79.70
11836;DHT22;5977;51.972;7.640;2022-12-18T03:40:56;13.80;79.70
11836;DHT22;5977;51.972;7.640;2022-12-18T03:43:39;13.90;79.40
11836;DHT22;5977;51.972;7.640;2022-12-18T03:46:15;13.80;79.30
11836;DHT22;5977;51.972;7.640;2022-12-18T03:48:47;13.90;79.40
11836;DHT22;5977;51.972;7.640;2022-12-18T03:51:26;13.80;79.40
11836;DHT22;5977;51.972;7.640;2022-12-18T03:53:58;13.80;79.50
11836;DHT22;5977;51.972;7.640;2022-12-18T03:56:40;13.90;79.70
11836;DHT22;5977;51.972;7.640;2022-12-18T03:59:13;13.80;79.50
11836;DHT22;5977;51.972;7.640;2022-12-18T04:01:46;13.90;79.70
11836;DHT22;5977;51.972;7.640;2022-12-18T04:04:18;13.90;79.50
11836;DHT22;5977;51.972;7.640;2022-12-18T04:06:48;13.80;79.40
11836;DHT22;5977;51.972;7.640;2022-12-18T04:09:18;13.80;79.50
11836;DHT22;5977;51.972;7.640;2022-12-18T04:11:47;13.80;79.60
11836;DHT22;5977;51.972;7.640;2022-12-18T04:14:17;13.80;80.30
11836;DHT22;5977;51.972;7.640;2022-12-18T04:16:49;13.80;79.40
11836;DHT22;5977;51.972;7.640;2022-12-18T04:19:21;13.80;79.50
11836;DHT22;5977;51.972;7.640;2022-12-18T04:21:51;13.80;79.50
11836;DHT22;5977;51.972;7.640;2022-12-18T04:24:18;13.80;79.60
11836;DHT22;5977;51.972;7.640;2022-12-18T04:26:58;13.80;79.60
11836;DHT22;5977;51.972;7.640;2022-12-18T04:29:32;13.80;79.50
11836;DHT22;5977;51.972;7.640;2022-12-18T04:32:00;13.90;79.40
11836;DHT22;5977;51.972;7.640;2022-12-18T04:34:30;13.80;79.40
11836;DHT22;5977;51.972;7.640;2022-12-18T04:36:58;13.80;79.50
11836;DHT22;5977;51.972;7.640;2022-12-18T04:39:26;13.80;79.50
11836;DHT22;5977;51.972;7.640;2022-12-18T04:41:58;13.90;79.60
11836;DHT22;5977;51.972;7.640;2022-12-18T04:44:27;13.90;79.60
11836;DHT22;5977;51.972;7.640;2022-12-18T04:46:56;13.90;79.60
11836;DHT22;5977;51.972;7.640;2022-12-18T04:49:24;13.80;79.40
11836;DHT22;5977;51.972;7.640;2022-12-18T04:51:53;13.80;79.40
11836;DHT22;5977;51.972;7.640;2022-12-18T04:54:21;13.80;79.30
11836;DHT22;5977;51.972;7.640;2022-12-18T04:56:49;13.80;79.30
11836;DHT22;5977;51.972;7.640;2022-12-18T04:59:17;13.80;79.30
11836;DHT22;5977;51.972;7.640;2022-12-18T05:01:44;13.80;79.40
11836;DHT22;5977;51.972;7.640;2022-12-18T05:04:14;13.80;79.50
11836;DHT22;5977;51.972;7.640;2022-12-18T05:06:43;13.80;79.20
11836;DHT22;5977;51.972;7.640;2022-12-18T05:09:10;13.80;79.40
11836;DHT22;5977;51.972;7.640;2022-12-18T05:11:38;13.80;79.60
11836;DHT22;5977;51.972;7.640;2022-12-18T05:14:06;13.80;79.40
11836;DHT22;5977;51.972;7.640;2022-12-18T05:16:34;13.80;79.60
11836;DHT22;5977;51.972;7.640;2022-12-18T05:19:02;13.80;79.60
11836;DHT22;5977;51.972;7.640;2022-12-18T05:21:31;13.80;79.70
11836;DHT22;5977;51.972;7.640;2022-12-18T05:23:59;13.80;79.70
11836;DHT22;5977;51.972;7.640;2022-12-18T05:26:27;13.80;80.00
11836;DHT22;5977;51.972;7.640;2022-12-18T05:28:55;13.80;80.10
11836;DHT22;5977;51.972;7.640;2022-12-18T05:31:23;13.80;80.10
11836;DHT22;5977;51.972;7.640;2022-12-18T05:33:50;13.80;80.10
11836;DHT22;5977;51.972;7.640;2022-12-18T05:36:18;13.80;80.30
11836;DHT22;5977;51.972;7.640;2022-12-18T05:38:47;13.70;80.10
11836;DHT22;5977;51.972;7.640;2022-12-18T05:41:15;13.70;79.90
11836;DHT22;5977;51.972;7.640;2022-12-18T05:43:43;13.70;80.00
11836;DHT22;5977;51.972;7.640;2022-12-18T05:46:13;13.70;79.90
11836;DHT22;5977;51.972;7.640;2022-12-18T05:48:41;13.80;80.10
11836;DHT22;5977;51.972;7.640;2022-12-18T05:51:11;13.70;80.00
11836;DHT22;5977;51.972;7.640;2022-12-18T05:53:39;13.80;80.10
11836;DHT22;5977;51.972;7.640;2022-12-18T05:56:12;13.70;80.50
11836;DHT22;5977;51.972;7.640;2022-12-18T05:58:41;13.70;80.30
11836;DHT22;5977;51.972;7.640;2022-12-18T06:01:12;13.70;80.50
11836;DHT22;5977;51.972;7.640;2022-12-18T06:03:40;13.70;80.20
11836;DHT22;5977;51.972;7.640;2022-12-18T06:06:16;13.80;80.30
11836;DHT22;5977;51.972;7.640;2022-12-18T06:08:44;13.70;80.10
11836;DHT22;5977;51.972;7.640;2022-12-18T06:11:17;13.70;80.50
11836;DHT22;5977;51.972;7.640;2022-12-18T06:13:45;13.70;80.20
11836;DHT22;5977;51.972;7.640;2022-12-18T06:16:14;13.70;80.30
11836;DHT22;5977;51.972;7.640;2022-12-18T06:18:42;13.70;80.30
11836;DHT22;5977;51.972;7.640;2022-12-18T06:21:10;13.70;80.40
11836;DHT22;5977;51.972;7.640;2022-12-18T06:23:38;13.70;80.40
11836;DHT22;5977;51.972;7.640;2022-12-18T06:26:07;13.70;80.50
11836;DHT22;5977;51.972;7.640;2022-12-18T06:28:37;13.70;80.50
11836;DHT22;5977;51.972;7.640;2022-12-18T06:31:06;13.70;80.20
11836;DHT22;5977;51.972;7.640;2022-12-18T06:33:35;13.70;80.30
11836;DHT22;5977;51.972;7.640;2022-12-18T06:36:05;13.70;80.20
11836;DHT22;5977;51.972;7.640;2022-12-18T06:38:35;13.70;80.90
11836;DHT22;5977;51.972;7.640;2022-12-18T06:41:06;13.70;80.10
11836;DHT22;5977;51.972;7.640;2022-12-18T06:43:34;13.70;79.80
11836;DHT22;5977;51.972;7.640;2022-12-18T06:46:05;13.70;80.00
11836;DHT22;5977;51.972;7.640;2022-12-18T06:48:33;13.80;80.70
11836;DHT22;5977;51.972;7.640;2022-12-18T06:51:03;13.80;80.00
11836;DHT22;5977;51.972;7.640;2022-12-18T06:53:31;13.80;79.80
11836;DHT22;5977;51.972;7.640;2022-12-18T06:56:00;13.60;78.60
11836;DHT22;5977;51.972;7.640;2022-12-18T06:58:35;13.60;77.50
11836;DHT22;5977;51.972;7.640;2022-12-18T07:01:06;13.60;76.60
11836;DHT22;5977;51.972;7.640;2022-12-18T07:03:35;13.60;75.40
11836;DHT22;5977;51.972;7.640;2022-12-18T07:06:04;13.50;74.70
11836;DHT22;5977;51.972;7.640;2022-12-18T07:08:32;13.50;73.70
11836;DHT22;5977;51.972;7.640;2022-12-18T07:11:03;13.40;73.10
11836;DHT22;5977;51.972;7.640;2022-12-18T07:13:31;13.40;72.40
11836;DHT22;5977;51.972;7.640;2022-12-18T07:16:11;13.40;72.10
11836;DHT22;5977;51.972;7.640;2022-12-18T07:18:48;13.30;71.40
11836;DHT22;5977;51.972;7.640;2022-12-18T07:21:17;13.30;71.40
11836;DHT22;5977;51.972;7.640;2022-12-18T07:23:45;13.20;70.80
11836;DHT22;5977;51.972;7.640;2022-12-18T07:26:16;13.30;70.20
11836;DHT22;5977;51.972;7.640;2022-12-18T07:28:44;13.20;70.10
11836;DHT22;5977;51.972;7.640;2022-12-18T07:31:15;13.20;69.00
11836;DHT22;5977;51.972;7.640;2022-12-18T07:33:44;13.30;68.70
11836;DHT22;5977;51.972;7.640;2022-12-18T07:36:13;13.40;68.50
11836;DHT22;5977;51.972;7.640;2022-12-18T07:38:41;13.40;69.10
11836;DHT22;5977;51.972;7.640;2022-12-18T07:41:10;13.50;69.90
11836;DHT22;5977;51.972;7.640;2022-12-18T07:43:39;13.60;70.30
11836;DHT22;5977;51.972;7.640;2022-12-18T07:46:09;13.50;70.60
11836;DHT22;5977;51.972;7.640;2022-12-18T07:48:40;13.50;70.90
11836;DHT22;5977;51.972;7.640;2022-12-18T07:51:09;13.50;71.20
11836;DHT22;5977;51.972;7.640;2022-12-18T07:53:37;13.60;72.00
11836;DHT22;5977;51.972;7.640;2022-12-18T07:56:07;13.60;72.30
11836;DHT22;5977;51.972;7.640;2022-12-18T07:58:54;13.60;72.70
11836;DHT22;5977;51.972;7.640;2022-12-18T08:01:22;13.60;72.80
11836;DHT22;5977;51.972;7.640;2022-12-18T08:03:51;13.60;73.10
11836;DHT22;5977;51.972;7.640;2022-12-18T08:06:19;13.60;73.30
11836;DHT22;5977;51.972;7.640;2022-12-18T08:08:51;13.60;73.50
11836;DHT22;5977;51.972;7.640;2022-12-18T08:11:19;13.70;73.40
11836;DHT22;5977;51.972;7.640;2022-12-18T08:13:47;13.60;73.60
11836;DHT22;5977;51.972;7.640;2022-12-18T08:16:15;13.60;73.80
11836;DHT22;5977;51.972;7.640;2022-12-18T08:18:43;13.70;73.90
11836;DHT22;5977;51.972;7.640;2022-12-18T08:21:14;13.70;73.90
11836;DHT22;5977;51.972;7.640;2022-12-18T08:23:43;13.70;73.80
11836;DHT22;5977;51.972;7.640;2022-12-18T08:26:12;13.70;74.20
11836;DHT22;5977;51.972;7.640;2022-12-18T08:28:40;13.80;74.00
11836;DHT22;5977;51.972;7.640;2022-12-18T08:31:08;13.80;73.90
11836;DHT22;5977;51.972;7.640;2022-12-18T08:33:37;13.80;73.80
11836;DHT22;5977;51.972;7.640;2022-12-18T08:36:08;13.80;73.90
11836;DHT22;5977;51.972;7.640;2022-12-18T08:38:38;13.90;74.20
11836;DHT22;5977;51.972;7.640;2022-12-18T08:41:09;13.90;74.10
11836;DHT22;5977;51.972;7.640;2022-12-18T08:43:38;14.00;74.50
11836;DHT22;5977;51.972;7.640;2022-12-18T08:46:25;14.00;74.30
11836;DHT22;5977;51.972;7.640;2022-12-18T08:48:54;14.10;74.00
11836;DHT22;5977;51.972;7.640;2022-12-18T08:51:22;14.20;74.20
11836;DHT22;5977;51.972;7.640;2022-12-18T08:53:51;14.30;74.00
11836;DHT22;5977;51.972;7.640;2022-12-18T08:56:19;14.30;73.70
11836;DHT22;5977;51.972;7.640;2022-12-18T08:58:47;14.20;74.00
11836;DHT22;5977;51.972;7.640;2022-12-18T09:01:15;14.20;74.20
11836;DHT22;5977;51.972;7.640;2022-12-18T09:03:43;14.10;74.30
11836;DHT22;5977;51.972;7.640;2022-12-18T09:06:13;14.20;74.40
11836;DHT22;5977;51.972;7.640;2022-12-18T09:08:41;14.20;74.30
11836;DHT22;5977;51.972;7.640;2022-12-18T09:11:14;14.20;74.40
11836;DHT22;5977;51.972;7.640;2022-12-18T09:13:42;14.20;73.80
11836;DHT22;5977;51.972;7.640;2022-12-18T09:16:10;14.20;74.30
11836;DHT22;5977;51.972;7.640;2022-12-18T09:18:38;14.20;74.20
11836;DHT22;5977;51.972;7.640;2022-12-18T09:21:11;14.20;74.20
11836;DHT22;5977;51.972;7.640;2022-12-18T09:23:39;14.30;74.00
11836;DHT22;5977;51.972;7.640;2022-12-18T09:26:07;14.30;74.00
11836;DHT22;5977;51.972;7.640;2022-12-18T09:28:36;14.30;73.90
11836;DHT22;5977;51.972;7.640;2022-12-18T09:31:06;14.40;73.70
11836;DHT22;5977;51.972;7.640;2022-12-18T09:33:35;14.50;73.70
11836;DHT22;5977;51.972;7.640;2022-12-18T09:36:06;14.40;73.70
11836;DHT22;5977;51.972;7.640;2022-12-18T09:38:34;14.40;73.70
11836;DHT22;5977;51.972;7.640;2022-12-18T09:41:05;14.30;73.80
11836;DHT22;5977;51.972;7.640;2022-12-18T09:43:45;14.30;73.90
11836;DHT22;5977;51.972;7.640;2022-12-18T09:46:17;14.30;74.10
11836;DHT22;5977;51.972;7.640;2022-12-18T09:48:50;14.30;74.20
11836;DHT22;5977;51.972;7.640;2022-12-18T09:51:24;14.30;74.50
11836;DHT22;5977;51.972;7.640;2022-12-18T09:53:56;14.30;74.80
11836;DHT22;5977;51.972;7.640;2022-12-18T09:56:28;14.30;75.10
11836;DHT22;5977;51.972;7.640;2022-12-18T09:59:01;14.30;75.50
11836;DHT22;5977;51.972;7.640;2022-12-18T10:01:29;14.30;75.80
11836;DHT22;5977;51.972;7.640;2022-12-18T10:04:09;14.30;76.10
11836;DHT22;5977;51.972;7.640;2022-12-18T10:06:41;14.40;76.30
11836;DHT22;5977;51.972;7.640;2022-12-18T10:09:20;14.30;76.20
11836;DHT22;5977;51.972;7.640;2022-12-18T10:11:57;14.30;76.30
11836;DHT22;5977;51.972;7.640;2022-12-18T10:14:41;14.40;76.40
11836;DHT22;5977;51.972;7.640;2022-12-18T10:17:18;14.40;76.20
11836;DHT22;5977;51.972;7.640;2022-12-18T10:19:52;14.40;76.40
11836;DHT22;5977;51.972;7.640;2022-12-18T10:22:31;14.40;76.30
11836;DHT22;5977;51.972;7.640;2022-12-18T10:25:18;14.30;76.20
11836;DHT22;5977;51.972;7.640;2022-12-18T10:27:47;14.30;76.10
11836;DHT22;5977;51.972;7.640;2022-12-18T10:30:19;14.30;76.40
11836;DHT22;5977;51.972;7.640;2022-12-18T10:32:47;14.30;76.30
11836;DHT22;5977;51.972;7.640;2022-12-18T10:35:18;14.30;76.50
11836;DHT22;5977;51.972;7.640;2022-12-18T10:38:02;14.30;76.30
11836;DHT22;5977;51.972;7.640;2022-12-18T10:40:30;14.30;76.10
11836;DHT22;5977;51.972;7.640;2022-12-18T10:43:09;14.30;76.60
11836;DHT22;5977;51.972;7.640;2022-12-18T10:45:39;14.30;76.50
11836;DHT22;5977;51.972;7.640;2022-12-18T10:48:18;14.30;76.80
11836;DHT22;5977;51.972;7.640;2022-12-18T10:50:49;14.30;76.60
11836;DHT22;5977;51.972;7.640;2022-12-18T10:53:40;14.40;77.00
11836;DHT22;5977;51.972;7.640;2022-12-18T10:56:09;14.40;77.00
11836;DHT22;5977;51.972;7.640;2022-12-18T10:58:38;14.40;77.40
11836;DHT22;5977;51.972;7.640;2022-12-18T11:01:11;14.50;78.00
11836;DHT22;5977;51.972;7.640;2022-12-18T11:03:42;14.50;78.00
11836;DHT22;5977;51.972;7.640;2022-12-18T11:06:12;14.40;78.40
11836;DHT22;5977;51.972;7.640;2022-12-18T11:08:41;14.50;79.00
11836;DHT22;5977;51.972;7.640;2022-12-18T11:11:19;14.50;79.50
11836;DHT22;5977;51.972;7.640;2022-12-18T11:13:57;14.60;79.80
11836;DHT22;5977;51.972;7.640;2022-12-18T11:16:28;14.50;80.40
11836;DHT22;5977;51.972;7.640;2022-12-18T11:19:17;14.50;80.70
11836;DHT22;5977;51.972;7.640;2022-12-18T11:21:46;14.50;80.70
11836;DHT22;5977;51.972;7.640;2022-12-18T11:24:21;14.50;81.40
11836;DHT22;5977;51.972;7.640;2022-12-18T11:26:52;14.50;81.40
11836;DHT22;5977;51.972;7.640;2022-12-18T11:29:31;14.50;81.80
11836;DHT22;5977;51.972;7.640;2022-12-18T11:32:24;14.60;82.40
11836;DHT22;5977;51.972;7.640;2022-12-18T11:34:57;14.60;82.50
11836;DHT22;5977;51.972;7.640;2022-12-18T11:37:27;14.50;82.90
11836;DHT22;5977;51.972;7.640;2022-12-18T11:39:58;14.50;83.50
11836;DHT22;5977;51.972;7.640;2022-12-18T11:42:32;14.50;83.70
11836;DHT22;5977;51.972;7.640;2022-12-18T11:45:08;14.40;83.40
11836;DHT22;5977;51.972;7.640;2022-12-18T11:47:47;14.40;83.60
11836;DHT22;5977;51.972;7.640;2022-12-18T11:50:19;14.40;83.50
11836;DHT22;5977;51.972;7.640;2022-12-18T11:52:49;14.40;83.30
11836;DHT22;5977;51.972;7.640;2022-12-18T11:55:29;14.40;83.10
11836;DHT22;5977;51.972;7.640;2022-12-18T11:58:05;14.30;82.60
11836;DHT22;5977;51.972;7.640;2022-12-18T12:00:40;14.30;82.60
11836;DHT22;5977;51.972;7.640;2022-12-18T12:03:21;14.40;82.50
11836;DHT22;5977;51.972;7.640;2022-12-18T12:06:06;14.30;81.90
11836;DHT22;5977;51.972;7.640;2022-12-18T12:08:45;14.40;82.00
11836;DHT22;5977;51.972;7.640;2022-12-18T12:11:20;14.40;81.90
11836;DHT22;5977;51.972;7.640;2022-12-18T12:14:00;14.30;81.90
11836;DHT22;5977;51.972;7.640;2022-12-18T12:16:35;14.30;81.80
11836;DHT22;5977;51.972;7.640;2022-12-18T12:19:18;14.30;81.90
11836;DHT22;5977;51.972;7.640;2022-12-18T12:21:52;14.30;81.90
11836;DHT22;5977;51.972;7.640;2022-12-18T12:24:33;14.30;82.80
11836;DHT22;5977;51.972;7.640;2022-12-18T12:27:11;14.20;81.90
11836;DHT22;5977;51.972;7.640;2022-12-18T12:29:50;14.30;81.30
11836;DHT22;5977;51.972;7.640;2022-12-18T12:32:32;14.20;81.10
11836;DHT22;5977;51.972;7.640;2022-12-18T12:35:16;14.20;81.00
11836;DHT22;5977;51.972;7.640;2022-12-18T12:37:56;14.30;80.90
11836;DHT22;5977;51.972;7.640;2022-12-18T12:40:31;14.20;81.30
11836;DHT22;5977;51.972;7.640;2022-12-18T12:43:24;14.30;81.30
11836;DHT22;5977;51.972;7.640;2022-12-18T12:45:55;14.20;81.20
11836;DHT22;5977;51.972;7.640;2022-12-18T12:48:33;14.20;81.20
11836;DHT22;5977;51.972;7.640;2022-12-18T12:51:08;14.20;81.10
11836;DHT22;5977;51.972;7.640;2022-12-18T12:53:39;14.20;80.90
11836;DHT22;5977;51.972;7.640;2022-12-18T12:56:10;14.20;80.90
11836;DHT22;5977;51.972;7.640;2022-12-18T12:58:46;14.20;80.80
11836;DHT22;5977;51.972;7.640;2022-12-18T13:01:25;14.20;80.80
11836;DHT22;5977;51.972;7.640;2022-12-18T13:04:02;14.20;80.70
11836;DHT22;5977;51.972;7.640;2022-12-18T13:06:42;14.20;80.80
11836;DHT22;5977;51.972;7.640;2022-12-18T13:09:12;14.20;80.80
11836;DHT22;5977;51.972;7.640;2022-12-18T13:11:41;14.20;81.10
11836;DHT22;5977;51.972;7.640;2022-12-18T13:14:31;14.20;81.10
11836;DHT22;5977;51.972;7.640;2022-12-18T13:17:16;14.20;81.10
11836;DHT22;5977;51.972;7.640;2022-12-18T13:19:47;14.20;81.00
11836;DHT22;5977;51.972;7.640;2022-12-18T13:22:34;14.20;81.10
11836;DHT22;5977;51.972;7.640;2022-12-18T13:25:03;14.10;80.90
11836;DHT22;5977;51.972;7.640;2022-12-18T13:27:59;14.20;81.20
11836;DHT22;5977;51.972;7.640;2022-12-18T13:30:43;14.20;81.00
11836;DHT22;5977;51.972;7.640;2022-12-18T13:33:41;14.20;81.50
11836;DHT22;5977;51.972;7.640;2022-12-18T13:36:31;14.20;80.90
11836;DHT22;5977;51.972;7.640;2022-12-18T13:39:21;14.20;81.20
11836;DHT22;5977;51.972;7.640;2022-12-18T13:42:31;14.30;81.20
11836;DHT22;5977;51.972;7.640;2022-12-18T13:45:42;14.20;81.10
11836;DHT22;5977;51.972;7.640;2022-12-18T13:48:22;14.20;81.10
11836;DHT22;5977;51.972;7.640;2022-12-18T13:50:59;14.30;81.40
11836;DHT22;5977;51.972;7.640;2022-12-18T13:53:36;14.20;81.30
11836;DHT22;5977;51.972;7.640;2022-12-18T13:56:08;14.30;81.50
11836;DHT22;5977;51.972;7.640;2022-12-18T13:58:36;14.30;81.50
11836;DHT22;5977;51.972;7.640;2022-12-18T14:01:04;14.20;81.50
11836;DHT22;5977;51.972;7.640;2022-12-18T14:03:33;14.30;81.60
11836;DHT22;5977;51.972;7.640;2022-12-18T14:06:04;14.30;81.50
11836;DHT22;5977;51.972;7.640;2022-12-18T14:08:37;14.30;81.50
11836;DHT22;5977;51.972;7.640;2022-12-18T14:11:08;14.30;81.70
11836;DHT22;5977;51.972;7.640;2022-12-18T14:13:47;14.30;81.90
11836;DHT22;5977;51.972;7.640;2022-12-18T14:16:17;14.30;82.10
11836;DHT22;5977;51.972;7.640;2022-12-18T14:18:48;14.30;82.00
11836;DHT22;5977;51.972;7.640;2022-12-18T14:21:20;14.30;82.30
11836;DHT22;5977;51.972;7.640;2022-12-18T14:23:48;14.20;82.40
11836;DHT22;5977;51.972;7.640;2022-12-18T14:26:23;14.20;82.50
11836;DHT22;5977;51.972;7.640;2022-12-18T14:28:53;14.20;82.30
11836;DHT22;5977;51.972;7.640;2022-12-18T14:31:24;14.10;82.50
11836;DHT22;5977;51.972;7.640;2022-12-18T14:33:52;14.10;82.30
11836;DHT22;5977;51.972;7.640;2022-12-18T14:36:22;14.20;82.20
11836;DHT22;5977;51.972;7.640;2022-12-18T14:38:52;14.10;82.00
11836;DHT22;5977;51.972;7.640;2022-12-18T14:41:22;14.20;81.90
11836;DHT22;5977;51.972;7.640;2022-12-18T14:43:52;14.20;81.70
11836;DHT22;5977;51.972;7.640;2022-12-18T14:46:29;14.20;81.80
11836;DHT22;5977;51.972;7.640;2022-12-18T14:49:00;14.20;81.60
11836;DHT22;5977;51.972;7.640;2022-12-18T14:51:30;14.20;81.70
11836;DHT22;5977;51.972;7.640;2022-12-18T14:54:00;14.20;81.90
11836;DHT22;5977;51.972;7.640;2022-12-18T14:56:31;14.20;81.90
11836;DHT22;5977;51.972;7.640;2022-12-18T14:59:01;14.20;81.90
11836;DHT22;5977;51.972;7.640;2022-12-18T15:01:33;14.20;82.00
11836;DHT22;5977;51.972;7.640;2022-12-18T15:04:02;14.20;81.90
11836;DHT22;5977;51.972;7.640;2022-12-18T15:06:33;14.20;82.20
11836;DHT22;5977;51.972;7.640;2022-12-18T15:09:04;14.20;82.20
11836;DHT22;5977;51.972;7.640;2022-12-18T15:11:43;14.20;82.30
11836;DHT22;5977;51.972;7.640;2022-12-18T15:14:31;14.20;82.20
11836;DHT22;5977;51.972;7.640;2022-12-18T15:17:03;14.10;82.00
11836;DHT22;5977;51.972;7.640;2022-12-18T15:19:36;14.10;82.20
11836;DHT22;5977;51.972;7.640;2022-12-18T15:22:12;14.20;82.30
11836;DHT22;5977;51.972;7.640;2022-12-18T15:24:44;14.20;82.40
11836;DHT22;5977;51.972;7.640;2022-12-18T15:27:23;14.10;82.60
11836;DHT22;5977;51.972;7.640;2022-12-18T15:30:18;14.20;82.60
11836;DHT22;5977;51.972;7.640;2022-12-18T15:32:47;14.20;82.60
11836;DHT22;5977;51.972;7.640;2022-12-18T15:35:18;14.20;82.90
11836;DHT22;5977;51.972;7.640;2022-12-18T15:37:47;14.10;82.60
11836;DHT22;5977;51.972;7.640;2022-12-18T15:40:16;14.20;82.70
11836;DHT22;5977;51.972;7.640;2022-12-18T15:42:47;14.20;82.70
11836;DHT22;5977;51.972;7.640;2022-12-18T15:45:33;14.20;82.80
11836;DHT22;5977;51.972;7.640;2022-12-18T15:48:01;14.10;82.90
11836;DHT22;5977;51.972;7.640;2022-12-18T15:50:29;14.20;82.80
11836;DHT22;5977;51.972;7.640;2022-12-18T15:52:57;14.10;82.80
11836;DHT22;5977;51.972;7.640;2022-12-18T15:55:24;14.20;82.90
11836;DHT22;5977;51.972;7.640;2022-12-18T15:58:11;14.20;83.00
11836;DHT22;5977;51.972;7.640;2022-12-18T16:00:41;14.20;83.00
11836;DHT22;5977;51.972;7.640;2022-12-18T16:03:12;14.10;83.10
11836;DHT22;5977;51.972;7.640;2022-12-18T16:05:40;14.10;83.10
11836;DHT22;5977;51.972;7.640;2022-12-18T16:08:08;14.10;83.30
11836;DHT22;5977;51.972;7.640;2022-12-18T16:10:36;14.10;83.10
11836;DHT22;5977;51.972;7.640;2022-12-18T16:13:04;14.10;83.10
11836;DHT22;5977;51.972;7.640;2022-12-18T16:15:33;14.10;83.60
11836;DHT22;5977;51.972;7.640;2022-12-18T16:18:01;14.10;83.40
11836;DHT22;5977;51.972;7.640;2022-12-18T16:20:28;14.10;83.40